sensor_id;sensor_type;location;lat;lon;timestamp;pressure;altitude;pressure_sealevel;temperature;humidity
50368;BME280;36281;34.132;-118.018;2023-05-24T00:01:32;99865.69;;;21.84;63.69
50368;BME280;36281;34.132;-118.018;2023-05-24T00:04:01;99863.78;;;21.84;63.90
50368;BME280;36281;34.132;-118.018;2023-05-24T00:06:31;99858.41;;;21.84;63.22
50368;BME280;36281;34.132;-118.018;2023-05-24T00:09:02;99860.31;;;21.84;64.02
50368;BME280;36281;34.132;-118.018;2023-05-24T00:11:31;99858.66;;;21.83;63.37
50368;BME280;36281;34.132;-118.018;2023-05-24T00:14:00;99866.25;;;21.81;63.12
50368;BME280;36281;34.132;-118.018;2023-05-24T00:16:31;99854.16;;;21.78;63.80
50368;BME280;36281;34.132;-118.018;2023-05-24T00:19:00;99857.13;;;21.77;63.86
50368;BME280;36281;34.132;-118.018;2023-05-24T00:21:29;99840.03;;;21.62;63.68
50368;BME280;36281;34.132;-118.018;2023-05-24T00:23:59;99853.97;;;21.70;63.59
50368;BME280;36281;34.132;-118.018;2023-05-24T00:26:28;99853.19;;;21.69;63.93
50368;BME280;36281;34.132;-118.018;2023-05-24T00:28:58;99849.72;;;21.63;64.03
50368;BME280;36281;34.132;-118.018;2023-05-24T00:31:27;99851.88;;;21.61;63.79
50368;BME280;36281;34.132;-118.018;2023-05-24T00:33:58;99845.19;;;21.59;63.48
50368;BME280;36281;34.132;-118.018;2023-05-24T00:36:27;99845.47;;;21.57;63.41
50368;BME280;36281;34.132;-118.018;2023-05-24T00:38:56;99839.28;;;21.57;63.41
50368;BME280;36281;34.132;-118.018;2023-05-24T00:41:25;99842.25;;;21.55;63.73
50368;BME280;36281;34.132;-118.018;2023-05-24T00:43:54;99848.75;;;21.54;63.77
50368;BME280;36281;34.132;-118.018;2023-05-24T00:46:29;99841.22;;;21.51;64.15
50368;BME280;36281;34.132;-118.018;2023-05-24T00:49:01;99839.91;;;21.49;64.11
50368;BME280;36281;34.132;-118.018;2023-05-24T00:51:30;99843.97;;;21.46;64.14
50368;BME280;36281;34.132;-118.018;2023-05-24T00:54:01;99839.66;;;21.45;64.35
50368;BME280;36281;34.132;-118.018;2023-05-24T00:56:30;99831.03;;;21.43;64.57
50368;BME280;36281;34.132;-118.018;2023-05-24T00:59:00;99834.84;;;21.42;64.25
50368;BME280;36281;34.132;-118.018;2023-05-24T01:01:29;99832.19;;;21.37;63.74
50368;BME280;36281;34.132;-118.018;2023-05-24T01:04:00;99836.78;;;21.36;64.09
50368;BME280;36281;34.132;-118.018;2023-05-24T01:06:29;99834.94;;;21.32;64.36
50368;BME280;36281;34.132;-118.018;2023-05-24T01:09:14;99828.19;;;21.29;64.19
50368;BME280;36281;34.132;-118.018;2023-05-24T01:12:00;99832.78;;;21.29;64.26
50368;BME280;36281;34.132;-118.018;2023-05-24T01:14:40;99835.25;;;21.25;63.62
50368;BME280;36281;34.132;-118.018;2023-05-24T01:17:16;99837.97;;;21.20;63.64
50368;BME280;36281;34.132;-118.018;2023-05-24T01:19:56;99837.72;;;21.16;63.57
50368;BME280;36281;34.132;-118.018;2023-05-24T01:25:43;99827.00;;;21.11;63.69
50368;BME280;36281;34.132;-118.018;2023-05-24T01:28:16;99839.16;;;21.09;63.82
50368;BME280;36281;34.132;-118.018;2023-05-24T01:30:46;99836.72;;;21.07;63.98
50368;BME280;36281;34.132;-118.018;2023-05-24T01:33:16;99836.22;;;21.05;64.11
50368;BME280;36281;34.132;-118.018;2023-05-24T01:35:45;99833.25;;;21.02;63.89
50368;BME280;36281;34.132;-118.018;2023-05-24T01:38:14;99833.31;;;20.97;63.92
50368;BME280;36281;34.132;-118.018;2023-05-24T01:40:44;99835.00;;;20.87;63.85
50368;BME280;36281;34.132;-118.018;2023-05-24T01:43:20;99840.41;;;20.82;64.24
50368;BME280;36281;34.132;-118.018;2023-05-24T01:45:53;99845.03;;;20.77;64.32
50368;BME280;36281;34.132;-118.018;2023-05-24T01:48:37;99839.41;;;20.68;64.38
50368;BME280;36281;34.132;-118.018;2023-05-24T01:51:15;99840.53;;;20.62;64.99
50368;BME280;36281;34.132;-118.018;2023-05-24T01:53:46;99846.75;;;20.57;65.06
50368;BME280;36281;34.132;-118.018;2023-05-24T01:56:18;99844.91;;;20.53;65.18
50368;BME280;36281;34.132;-118.018;2023-05-24T01:58:50;99845.19;;;20.46;65.53
50368;BME280;36281;34.132;-118.018;2023-05-24T02:01:20;99852.22;;;20.37;65.58
50368;BME280;36281;34.132;-118.018;2023-05-24T02:03:50;99848.47;;;20.33;65.66
50368;BME280;36281;34.132;-118.018;2023-05-24T02:06:19;99845.28;;;20.26;65.74
50368;BME280;36281;34.132;-118.018;2023-05-24T02:08:49;99854.19;;;20.21;66.10
50368;BME280;36281;34.132;-118.018;2023-05-24T02:11:19;99864.16;;;20.16;66.11
50368;BME280;36281;34.132;-118.018;2023-05-24T02:13:50;99863.88;;;20.12;66.37
50368;BME280;36281;34.132;-118.018;2023-05-24T02:16:19;99851.25;;;20.07;66.61
50368;BME280;36281;34.132;-118.018;2023-05-24T02:18:51;99860.94;;;20.03;66.94
50368;BME280;36281;34.132;-118.018;2023-05-24T02:21:20;99852.41;;;19.91;67.45
50368;BME280;36281;34.132;-118.018;2023-05-24T02:23:50;99866.66;;;19.92;67.56
50368;BME280;36281;34.132;-118.018;2023-05-24T02:26:19;99866.13;;;19.90;68.16
50368;BME280;36281;34.132;-118.018;2023-05-24T02:28:50;99870.69;;;19.84;68.31
50368;BME280;36281;34.132;-118.018;2023-05-24T02:31:20;99868.56;;;19.81;68.07
50368;BME280;36281;34.132;-118.018;2023-05-24T02:33:49;99876.63;;;19.76;68.09
50368;BME280;36281;34.132;-118.018;2023-05-24T02:36:18;99886.59;;;19.70;68.12
50368;BME280;36281;34.132;-118.018;2023-05-24T02:38:47;99877.47;;;19.61;68.71
50368;BME280;36281;34.132;-118.018;2023-05-24T02:41:17;99884.69;;;19.55;68.64
50368;BME280;36281;34.132;-118.018;2023-05-24T02:43:46;99887.91;;;19.52;68.93
50368;BME280;36281;34.132;-118.018;2023-05-24T02:46:17;99894.63;;;19.50;69.47
50368;BME280;36281;34.132;-118.018;2023-05-24T02:48:46;99897.84;;;19.47;69.34
50368;BME280;36281;34.132;-118.018;2023-05-24T02:51:17;99892.75;;;19.40;69.39
50368;BME280;36281;34.132;-118.018;2023-05-24T02:53:46;99890.31;;;19.33;69.79
50368;BME280;36281;34.132;-118.018;2023-05-24T02:56:15;99899.19;;;19.34;69.67
50368;BME280;36281;34.132;-118.018;2023-05-24T02:58:49;99905.91;;;19.31;69.63
50368;BME280;36281;34.132;-118.018;2023-05-24T03:01:20;99899.19;;;19.24;69.71
50368;BME280;36281;34.132;-118.018;2023-05-24T03:03:50;99904.31;;;19.20;69.87
50368;BME280;36281;34.132;-118.018;2023-05-24T03:06:19;99902.13;;;19.17;69.90
50368;BME280;36281;34.132;-118.018;2023-05-24T03:08:49;99909.66;;;19.15;70.06
50368;BME280;36281;34.132;-118.018;2023-05-24T03:11:18;99910.19;;;19.12;70.21
50368;BME280;36281;34.132;-118.018;2023-05-24T03:13:51;99910.19;;;19.07;70.39
50368;BME280;36281;34.132;-118.018;2023-05-24T03:16:22;99905.63;;;19.02;70.46
50368;BME280;36281;34.132;-118.018;2023-05-24T03:18:51;99909.66;;;19.00;70.81
50368;BME280;36281;34.132;-118.018;2023-05-24T03:21:22;99918.50;;;19.00;71.10
50368;BME280;36281;34.132;-118.018;2023-05-24T03:23:52;99909.09;;;18.98;71.27
50368;BME280;36281;34.132;-118.018;2023-05-24T03:26:21;99917.41;;;18.96;71.55
50368;BME280;36281;34.132;-118.018;2023-05-24T03:28:51;99922.22;;;18.94;71.69
50368;BME280;36281;34.132;-118.018;2023-05-24T03:31:23;99931.13;;;18.95;71.73
50368;BME280;36281;34.132;-118.018;2023-05-24T03:33:53;99929.75;;;18.92;71.42
50368;BME280;36281;34.132;-118.018;2023-05-24T03:36:23;99920.59;;;18.88;71.52
50368;BME280;36281;34.132;-118.018;2023-05-24T03:38:53;99919.53;;;18.84;71.57
50368;BME280;36281;34.132;-118.018;2023-05-24T03:41:23;99929.44;;;18.78;71.61
50368;BME280;36281;34.132;-118.018;2023-05-24T03:43:52;99933.19;;;18.77;71.83
50368;BME280;36281;34.132;-118.018;2023-05-24T03:46:23;99929.19;;;18.75;72.06
50368;BME280;36281;34.132;-118.018;2023-05-24T03:48:52;99926.75;;;18.73;72.24
50368;BME280;36281;34.132;-118.018;2023-05-24T03:51:21;99922.72;;;18.71;72.30
50368;BME280;36281;34.132;-118.018;2023-05-24T03:53:57;99927.81;;;18.72;72.37
50368;BME280;36281;34.132;-118.018;2023-05-24T03:56:26;99933.69;;;18.69;72.60
50368;BME280;36281;34.132;-118.018;2023-05-24T03:58:55;99930.72;;;18.66;72.67
50368;BME280;36281;34.132;-118.018;2023-05-24T04:01:29;99928.84;;;18.61;72.58
50368;BME280;36281;34.132;-118.018;2023-05-24T04:04:01;99933.94;;;18.63;72.83
50368;BME280;36281;34.132;-118.018;2023-05-24T04:06:31;99940.09;;;18.63;72.88
50368;BME280;36281;34.132;-118.018;2023-05-24T04:09:00;99935.81;;;18.62;72.98
50368;BME280;36281;34.132;-118.018;2023-05-24T04:11:30;99941.69;;;18.59;72.85
50368;BME280;36281;34.132;-118.018;2023-05-24T04:14:00;99940.88;;;18.58;73.18
50368;BME280;36281;34.132;-118.018;2023-05-24T04:16:30;99953.22;;;18.59;73.13
50368;BME280;36281;34.132;-118.018;2023-05-24T04:19:01;99950.53;;;18.59;73.42
50368;BME280;36281;34.132;-118.018;2023-05-24T04:21:31;99940.63;;;18.60;73.60
50368;BME280;36281;34.132;-118.018;2023-05-24T04:24:00;99958.56;;;18.59;73.45
50368;BME280;36281;34.132;-118.018;2023-05-24T04:26:30;99959.66;;;18.58;73.59
50368;BME280;36281;34.132;-118.018;2023-05-24T04:29:01;99960.72;;;18.57;73.76
50368;BME280;36281;34.132;-118.018;2023-05-24T04:31:32;99966.06;;;18.52;73.89
50368;BME280;36281;34.132;-118.018;2023-05-24T04:34:02;99966.06;;;18.47;73.92
50368;BME280;36281;34.132;-118.018;2023-05-24T04:36:31;99959.31;;;18.45;73.93
50368;BME280;36281;34.132;-118.018;2023-05-24T04:39:03;99955.28;;;18.37;74.02
50368;BME280;36281;34.132;-118.018;2023-05-24T04:41:32;99964.91;;;18.33;74.23
50368;BME280;36281;34.132;-118.018;2023-05-24T04:44:03;99956.84;;;18.33;74.49
50368;BME280;36281;34.132;-118.018;2023-05-24T04:46:34;99959.00;;;18.31;74.78
50368;BME280;36281;34.132;-118.018;2023-05-24T04:49:03;99960.59;;;18.27;74.93
50368;BME280;36281;34.132;-118.018;2023-05-24T04:51:33;99958.69;;;18.22;75.31
50368;BME280;36281;34.132;-118.018;2023-05-24T04:54:05;99962.44;;;18.21;75.30
50368;BME280;36281;34.132;-118.018;2023-05-24T04:56:36;99967.00;;;18.21;75.71
50368;BME280;36281;34.132;-118.018;2023-05-24T04:59:06;99962.13;;;18.18;75.62
50368;BME280;36281;34.132;-118.018;2023-05-24T05:01:38;99958.13;;;18.15;76.03
50368;BME280;36281;34.132;-118.018;2023-05-24T05:04:07;99951.91;;;18.15;75.94
50368;BME280;36281;34.132;-118.018;2023-05-24T05:06:37;99961.84;;;18.14;75.64
50368;BME280;36281;34.132;-118.018;2023-05-24T05:09:07;99956.44;;;18.09;75.33
50368;BME280;36281;34.132;-118.018;2023-05-24T05:11:38;99953.50;;;18.05;75.85
50368;BME280;36281;34.132;-118.018;2023-05-24T05:14:07;99962.88;;;18.08;76.00
50368;BME280;36281;34.132;-118.018;2023-05-24T05:16:38;99962.59;;;18.04;76.00
50368;BME280;36281;34.132;-118.018;2023-05-24T05:19:08;99963.91;;;18.02;76.25
50368;BME280;36281;34.132;-118.018;2023-05-24T05:21:41;99959.88;;;17.99;76.40
50368;BME280;36281;34.132;-118.018;2023-05-24T05:24:10;99958.78;;;17.95;76.56
50368;BME280;36281;34.132;-118.018;2023-05-24T05:26:39;99950.19;;;17.93;76.45
50368;BME280;36281;34.132;-118.018;2023-05-24T05:29:09;99954.25;;;17.96;76.59
50368;BME280;36281;34.132;-118.018;2023-05-24T05:31:40;99945.63;;;17.94;76.93
50368;BME280;36281;34.132;-118.018;2023-05-24T05:34:09;99947.25;;;17.95;76.54
50368;BME280;36281;34.132;-118.018;2023-05-24T05:36:38;99938.94;;;17.91;76.87
50368;BME280;36281;34.132;-118.018;2023-05-24T05:39:08;99950.75;;;17.95;76.95
50368;BME280;36281;34.132;-118.018;2023-05-24T05:41:38;99941.06;;;17.94;76.86
50368;BME280;36281;34.132;-118.018;2023-05-24T05:44:10;99938.41;;;17.94;76.87
50368;BME280;36281;34.132;-118.018;2023-05-24T05:46:41;99943.72;;;17.89;76.83
50368;BME280;36281;34.132;-118.018;2023-05-24T05:49:13;99948.28;;;17.89;76.76
50368;BME280;36281;34.132;-118.018;2023-05-24T05:51:43;99937.53;;;17.83;77.06
50368;BME280;36281;34.132;-118.018;2023-05-24T05:54:12;99928.97;;;17.81;77.14
50368;BME280;36281;34.132;-118.018;2023-05-24T05:56:45;99941.81;;;17.85;77.09
50368;BME280;36281;34.132;-118.018;2023-05-24T05:59:15;99940.22;;;17.83;77.29
50368;BME280;36281;34.132;-118.018;2023-05-24T06:01:46;99942.09;;;17.83;77.19
50368;BME280;36281;34.132;-118.018;2023-05-24T06:04:16;99938.88;;;17.81;77.21
50368;BME280;36281;34.132;-118.018;2023-05-24T06:06:46;99943.16;;;17.82;77.21
50368;BME280;36281;34.132;-118.018;2023-05-24T06:09:18;99936.19;;;17.81;77.23
50368;BME280;36281;34.132;-118.018;2023-05-24T06:11:47;99931.34;;;17.78;77.32
50368;BME280;36281;34.132;-118.018;2023-05-24T06:14:16;99933.47;;;17.76;77.37
50368;BME280;36281;34.132;-118.018;2023-05-24T06:16:48;99939.34;;;17.73;77.36
50368;BME280;36281;34.132;-118.018;2023-05-24T06:19:19;99944.44;;;17.74;77.42
50368;BME280;36281;34.132;-118.018;2023-05-24T06:21:49;99943.06;;;17.72;77.24
50368;BME280;36281;34.132;-118.018;2023-05-24T06:24:18;99945.16;;;17.70;77.65
50368;BME280;36281;34.132;-118.018;2023-05-24T06:26:51;99954.25;;;17.69;77.56
50368;BME280;36281;34.132;-118.018;2023-05-24T06:29:21;99925.28;;;17.61;77.69
50368;BME280;36281;34.132;-118.018;2023-05-24T06:31:52;99941.41;;;17.66;77.58
50368;BME280;36281;34.132;-118.018;2023-05-24T06:34:21;99947.56;;;17.66;77.88
50368;BME280;36281;34.132;-118.018;2023-05-24T06:36:51;99947.56;;;17.66;77.50
50368;BME280;36281;34.132;-118.018;2023-05-24T06:39:20;99939.75;;;17.65;77.62
50368;BME280;36281;34.132;-118.018;2023-05-24T06:41:49;99938.47;;;17.67;77.83
50368;BME280;36281;34.132;-118.018;2023-05-24T06:44:19;99937.34;;;17.63;77.81
50368;BME280;36281;34.132;-118.018;2023-05-24T06:46:53;99941.38;;;17.61;77.60
50368;BME280;36281;34.132;-118.018;2023-05-24T06:49:22;99938.91;;;17.59;77.78
50368;BME280;36281;34.132;-118.018;2023-05-24T06:51:51;99942.41;;;17.60;77.81
50368;BME280;36281;34.132;-118.018;2023-05-24T06:54:20;99938.13;;;17.58;77.62
50368;BME280;36281;34.132;-118.018;2023-05-24T06:56:49;99934.59;;;17.53;77.91
50368;BME280;36281;34.132;-118.018;2023-05-24T06:59:18;99932.72;;;17.53;78.16
50368;BME280;36281;34.132;-118.018;2023-05-24T07:01:48;99928.44;;;17.52;78.14
50368;BME280;36281;34.132;-118.018;2023-05-24T07:04:21;99929.19;;;17.48;78.42
50368;BME280;36281;34.132;-118.018;2023-05-24T07:06:50;99933.19;;;17.45;78.49
50368;BME280;36281;34.132;-118.018;2023-05-24T07:09:22;99933.50;;;17.49;78.61
50368;BME280;36281;34.132;-118.018;2023-05-24T07:11:51;99932.16;;;17.46;78.56
50368;BME280;36281;34.132;-118.018;2023-05-24T07:14:21;99922.47;;;17.45;78.63
50368;BME280;36281;34.132;-118.018;2023-05-24T07:16:51;99922.44;;;17.40;78.62
50368;BME280;36281;34.132;-118.018;2023-05-24T07:19:24;99923.50;;;17.39;78.72
50368;BME280;36281;34.132;-118.018;2023-05-24T07:21:56;99927.25;;;17.38;78.96
50368;BME280;36281;34.132;-118.018;2023-05-24T07:24:26;99920.28;;;17.37;79.03
50368;BME280;36281;34.132;-118.018;2023-05-24T07:26:55;99927.25;;;17.38;79.19
50368;BME280;36281;34.132;-118.018;2023-05-24T07:29:25;99903.09;;;17.33;78.92
50368;BME280;36281;34.132;-118.018;2023-05-24T07:31:54;99906.31;;;17.35;79.38
50368;BME280;36281;34.132;-118.018;2023-05-24T07:34:25;99908.78;;;17.37;79.20
50368;BME280;36281;34.132;-118.018;2023-05-24T07:36:57;99917.03;;;17.35;79.21
50368;BME280;36281;34.132;-118.018;2023-05-24T07:39:28;99908.47;;;17.33;79.37
50368;BME280;36281;34.132;-118.018;2023-05-24T07:41:57;99906.00;;;17.26;79.40
50368;BME280;36281;34.132;-118.018;2023-05-24T07:44:26;99902.81;;;17.29;79.91
50368;BME280;36281;34.132;-118.018;2023-05-24T07:46:55;99905.75;;;17.28;79.71
50368;BME280;36281;34.132;-118.018;2023-05-24T07:49:26;99909.50;;;17.27;79.86
50368;BME280;36281;34.132;-118.018;2023-05-24T07:51:56;99903.34;;;17.26;79.83
50368;BME280;36281;34.132;-118.018;2023-05-24T07:54:26;99902.53;;;17.26;80.21
50368;BME280;36281;34.132;-118.018;2023-05-24T07:56:56;99906.81;;;17.27;80.29
50368;BME280;36281;34.132;-118.018;2023-05-24T07:59:25;99903.06;;;17.28;80.26
50368;BME280;36281;34.132;-118.018;2023-05-24T08:01:54;99896.63;;;17.29;80.15
50368;BME280;36281;34.132;-118.018;2023-05-24T08:04:30;99893.44;;;17.27;79.97
50368;BME280;36281;34.132;-118.018;2023-05-24T08:07:00;99901.47;;;17.27;79.74
50368;BME280;36281;34.132;-118.018;2023-05-24T08:09:30;99899.84;;;17.26;79.75
50368;BME280;36281;34.132;-118.018;2023-05-24T08:12:04;99901.47;;;17.27;79.61
50368;BME280;36281;34.132;-118.018;2023-05-24T08:14:34;99897.41;;;17.24;79.67
50368;BME280;36281;34.132;-118.018;2023-05-24T08:17:03;99887.78;;;17.23;79.98
50368;BME280;36281;34.132;-118.018;2023-05-24T08:19:34;99892.31;;;17.23;79.90
50368;BME280;36281;34.132;-118.018;2023-05-24T08:22:03;99894.44;;;17.21;79.97
50368;BME280;36281;34.132;-118.018;2023-05-24T08:24:33;99861.06;;;16.96;80.19
50368;BME280;36281;34.132;-118.018;2023-05-24T08:27:02;99901.41;;;17.22;80.49
50368;BME280;36281;34.132;-118.018;2023-05-24T08:29:32;99893.38;;;17.22;80.19
50368;BME280;36281;34.132;-118.018;2023-05-24T08:32:01;99896.06;;;17.22;80.00
50368;BME280;36281;34.132;-118.018;2023-05-24T08:34:30;99892.81;;;17.20;80.16
50368;BME280;36281;34.132;-118.018;2023-05-24T08:37:01;99887.19;;;17.16;80.26
50368;BME280;36281;34.132;-118.018;2023-05-24T08:39:30;99886.63;;;17.14;80.46
50368;BME280;36281;34.132;-118.018;2023-05-24T08:41:59;99890.63;;;17.12;80.45
50368;BME280;36281;34.132;-118.018;2023-05-24T08:44:35;99889.81;;;17.11;80.52
50368;BME280;36281;34.132;-118.018;2023-05-24T08:47:09;99881.47;;;17.08;80.65
50368;BME280;36281;34.132;-118.018;2023-05-24T08:49:40;99889.25;;;17.09;80.78
50368;BME280;36281;34.132;-118.018;2023-05-24T08:52:12;99882.53;;;17.07;80.86
50368;BME280;36281;34.132;-118.018;2023-05-24T08:54:42;99887.91;;;17.07;80.98
50368;BME280;36281;34.132;-118.018;2023-05-24T08:57:12;99880.41;;;17.09;80.85
50368;BME280;36281;34.132;-118.018;2023-05-24T08:59:41;99881.47;;;17.08;80.83
50368;BME280;36281;34.132;-118.018;2023-05-24T09:02:13;99884.97;;;17.08;81.00
50368;BME280;36281;34.132;-118.018;2023-05-24T09:04:48;99880.41;;;17.09;81.04
50368;BME280;36281;34.132;-118.018;2023-05-24T09:07:21;99876.13;;;17.08;81.32
50368;BME280;36281;34.132;-118.018;2023-05-24T09:09:57;99874.00;;;17.10;81.34
50368;BME280;36281;34.132;-118.018;2023-05-24T09:12:28;99873.75;;;17.11;81.12
50368;BME280;36281;34.132;-118.018;2023-05-24T09:15:06;99878.53;;;17.09;81.19
50368;BME280;36281;34.132;-118.018;2023-05-24T09:17:36;99871.56;;;17.08;81.66
50368;BME280;36281;34.132;-118.018;2023-05-24T09:20:07;99868.59;;;17.04;81.86
50368;BME280;36281;34.132;-118.018;2023-05-24T09:22:41;99873.66;;;17.01;81.96
50368;BME280;36281;34.132;-118.018;2023-05-24T09:25:13;99853.47;;;16.88;82.24
50368;BME280;36281;34.132;-118.018;2023-05-24T09:27:42;99857.72;;;16.84;82.89
50368;BME280;36281;34.132;-118.018;2023-05-24T09:30:15;99864.97;;;16.89;83.33
50368;BME280;36281;34.132;-118.018;2023-05-24T09:32:54;99865.47;;;16.86;83.80
50368;BME280;36281;34.132;-118.018;2023-05-24T09:35:24;99860.34;;;16.79;84.18
50368;BME280;36281;34.132;-118.018;2023-05-24T09:37:57;99860.84;;;16.76;84.59
50368;BME280;36281;34.132;-118.018;2023-05-24T09:40:29;99867.56;;;16.78;84.75
50368;BME280;36281;34.132;-118.018;2023-05-24T09:43:05;99867.56;;;16.78;84.84
50368;BME280;36281;34.132;-118.018;2023-05-24T09:45:40;99867.25;;;16.75;85.10
50368;BME280;36281;34.132;-118.018;2023-05-24T09:48:11;99864.28;;;16.71;85.58
50368;BME280;36281;34.132;-118.018;2023-05-24T09:50:40;99866.13;;;16.71;85.64
50368;BME280;36281;34.132;-118.018;2023-05-24T09:53:12;99870.91;;;16.69;85.80
50368;BME280;36281;34.132;-118.018;2023-05-24T09:55:44;99864.19;;;16.66;86.20
50368;BME280;36281;34.132;-118.018;2023-05-24T09:58:14;99867.69;;;16.67;86.27
50368;BME280;36281;34.132;-118.018;2023-05-24T10:00:44;99872.50;;;16.70;86.50
50368;BME280;36281;34.132;-118.018;2023-05-24T10:03:14;99847.22;;;16.55;86.56
50368;BME280;36281;34.132;-118.018;2023-05-24T10:05:44;99874.16;;;16.71;86.60
50368;BME280;36281;34.132;-118.018;2023-05-24T10:08:16;99864.44;;;16.65;86.82
50368;BME280;36281;34.132;-118.018;2023-05-24T10:10:46;99874.72;;;16.73;86.97
50368;BME280;36281;34.132;-118.018;2023-05-24T10:13:16;99873.13;;;16.72;87.33
50368;BME280;36281;34.132;-118.018;2023-05-24T10:15:46;99881.13;;;16.72;87.73
50368;BME280;36281;34.132;-118.018;2023-05-24T10:18:15;99875.44;;;16.68;88.02
50368;BME280;36281;34.132;-118.018;2023-05-24T10:20:46;99879.19;;;16.67;88.47
50368;BME280;36281;34.132;-118.018;2023-05-24T10:23:19;99881.28;;;16.65;89.05
50368;BME280;36281;34.132;-118.018;2023-05-24T10:25:58;99876.13;;;16.59;89.55
50368;BME280;36281;34.132;-118.018;2023-05-24T10:28:28;99874.25;;;16.59;90.07
50368;BME280;36281;34.132;-118.018;2023-05-24T10:31:04;99874.25;;;16.59;90.47
50368;BME280;36281;34.132;-118.018;2023-05-24T10:33:36;99875.59;;;16.57;90.75
50368;BME280;36281;34.132;-118.018;2023-05-24T10:36:07;99881.44;;;16.53;90.98
50368;BME280;36281;34.132;-118.018;2023-05-24T10:38:40;99885.72;;;16.54;91.50
50368;BME280;36281;34.132;-118.018;2023-05-24T10:41:12;99886.78;;;16.53;91.88
50368;BME280;36281;34.132;-118.018;2023-05-24T10:43:45;99882.44;;;16.47;92.01
50368;BME280;36281;34.132;-118.018;2023-05-24T10:46:34;99892.31;;;16.47;92.09
50368;BME280;36281;34.132;-118.018;2023-05-24T10:49:03;99889.34;;;16.43;92.65
50368;BME280;36281;34.132;-118.018;2023-05-24T10:51:35;99886.13;;;16.41;92.96
50368;BME280;36281;34.132;-118.018;2023-05-24T10:54:17;99891.94;;;16.38;93.63
50368;BME280;36281;34.132;-118.018;2023-05-24T10:56:48;99884.41;;;16.35;93.87
50368;BME280;36281;34.132;-118.018;2023-05-24T10:59:28;99883.88;;;16.33;93.95
50368;BME280;36281;34.132;-118.018;2023-05-24T11:01:58;99888.41;;;16.33;94.16
50368;BME280;36281;34.132;-118.018;2023-05-24T11:04:32;99881.94;;;16.28;94.41
50368;BME280;36281;34.132;-118.018;2023-05-24T11:07:04;99900.09;;;16.26;94.71
50368;BME280;36281;34.132;-118.018;2023-05-24T11:09:35;99894.44;;;16.23;94.55
50368;BME280;36281;34.132;-118.018;2023-05-24T11:12:06;99892.25;;;16.20;94.78
50368;BME280;36281;34.132;-118.018;2023-05-24T11:14:38;99890.31;;;16.15;95.08
50368;BME280;36281;34.132;-118.018;2023-05-24T11:17:07;99893.25;;;16.14;95.19
50368;BME280;36281;34.132;-118.018;2023-05-24T11:19:37;99883.53;;;16.08;95.75
50368;BME280;36281;34.132;-118.018;2023-05-24T11:22:07;99894.56;;;16.11;95.88
50368;BME280;36281;34.132;-118.018;2023-05-24T11:24:40;99888.97;;;16.13;96.36
50368;BME280;36281;34.132;-118.018;2023-05-24T11:27:11;99890.81;;;16.12;96.63
50368;BME280;36281;34.132;-118.018;2023-05-24T11:29:41;99887.81;;;16.09;96.62
50368;BME280;36281;34.132;-118.018;2023-05-24T11:32:15;99889.69;;;16.08;96.88
50368;BME280;36281;34.132;-118.018;2023-05-24T11:34:45;99895.84;;;16.09;97.04
50368;BME280;36281;34.132;-118.018;2023-05-24T11:37:15;99891.56;;;16.08;96.76
50368;BME280;36281;34.132;-118.018;2023-05-24T11:39:50;99895.84;;;16.09;96.58
50368;BME280;36281;34.132;-118.018;2023-05-24T11:42:21;99891.88;;;16.11;96.74
50368;BME280;36281;34.132;-118.018;2023-05-24T11:44:53;99894.78;;;16.10;96.09
50368;BME280;36281;34.132;-118.018;2023-05-24T11:47:23;99898.78;;;16.07;95.75
50368;BME280;36281;34.132;-118.018;2023-05-24T11:49:52;99892.84;;;16.05;95.52
50368;BME280;36281;34.132;-118.018;2023-05-24T11:52:21;99893.91;;;16.04;95.54
50368;BME280;36281;34.132;-118.018;2023-05-24T11:54:52;99891.97;;;15.99;95.39
50368;BME280;36281;34.132;-118.018;2023-05-24T11:57:26;99888.75;;;15.97;95.55
50368;BME280;36281;34.132;-118.018;2023-05-24T11:59:58;99898.38;;;15.98;95.63
50368;BME280;36281;34.132;-118.018;2023-05-24T12:02:29;99892.22;;;15.98;95.85
50368;BME280;36281;34.132;-118.018;2023-05-24T12:05:06;99898.94;;;16.00;96.05
50368;BME280;36281;34.132;-118.018;2023-05-24T12:07:37;99897.06;;;16.01;96.20
50368;BME280;36281;34.132;-118.018;2023-05-24T12:10:08;99897.63;;;16.03;96.54
50368;BME280;36281;34.132;-118.018;2023-05-24T12:12:42;99893.34;;;16.02;96.04
50368;BME280;36281;34.132;-118.018;2023-05-24T12:15:13;99887.22;;;16.01;95.96
50368;BME280;36281;34.132;-118.018;2023-05-24T12:17:43;99894.16;;;16.02;96.27
50368;BME280;36281;34.132;-118.018;2023-05-24T12:20:13;99896.84;;;16.02;96.54
50368;BME280;36281;34.132;-118.018;2023-05-24T12:22:47;99888.81;;;16.02;96.66
50368;BME280;36281;34.132;-118.018;2023-05-24T12:25:21;99898.69;;;16.02;96.64
50368;BME280;36281;34.132;-118.018;2023-05-24T12:27:52;99899.50;;;16.02;96.82
50368;BME280;36281;34.132;-118.018;2023-05-24T12:30:23;99893.59;;;16.00;96.48
50368;BME280;36281;34.132;-118.018;2023-05-24T12:32:53;99886.88;;;15.98;96.47
50368;BME280;36281;34.132;-118.018;2023-05-24T12:35:23;99897.97;;;16.07;96.60
50368;BME280;36281;34.132;-118.018;2023-05-24T12:37:57;99893.66;;;16.06;96.95
50368;BME280;36281;34.132;-118.018;2023-05-24T12:40:32;99892.84;;;16.05;97.03
50368;BME280;36281;34.132;-118.018;2023-05-24T12:43:03;99891.88;;;16.11;97.26
50368;BME280;36281;34.132;-118.018;2023-05-24T12:45:32;99896.16;;;16.12;97.39
50368;BME280;36281;34.132;-118.018;2023-05-24T12:48:02;99895.59;;;16.10;97.71
50368;BME280;36281;34.132;-118.018;2023-05-24T12:50:32;99901.25;;;16.14;97.86
50368;BME280;36281;34.132;-118.018;2023-05-24T12:53:02;99901.25;;;16.14;97.96